sensor_id;sensor_type;location;lat;lon;timestamp;P1;durP1;ratioP1;P2;durP2;ratioP2
43327;SDS011;28923;45.412;10.852;2023-12-14T05:01:55;1.45;;;1.35;;
43327;SDS011;28923;45.412;10.852;2023-12-14T05:04:21;1.33;;;1.23;;
43327;SDS011;28923;45.412;10.852;2023-12-14T05:06:46;1.25;;;1.15;;
43327;SDS011;28923;45.412;10.852;2023-12-14T05:09:12;1.25;;;1.15;;
43327;SDS011;28923;45.412;10.852;2023-12-14T05:11:39;1.40;;;1.30;;
43327;SDS011;28923;45.412;10.852;2023-12-14T05:14:04;1.25;;;1.13;;
43327;SDS011;28923;45.412;10.852;2023-12-14T05:16:30;0.93;;;0.93;;
43327;SDS011;28923;45.412;10.852;2023-12-14T05:18:56;1.60;;;1.45;;
43327;SDS011;28923;45.412;10.852;2023-12-14T05:21:24;1.20;;;1.10;;
43327;SDS011;28923;45.412;10.852;2023-12-14T05:23:51;1.20;;;1.10;;
43327;SDS011;28923;45.412;10.852;2023-12-14T05:26:17;1.20;;;1.10;;
43327;SDS011;28923;45.412;10.852;2023-12-14T05:28:43;1.05;;;1.05;;
43327;SDS011;28923;45.412;10.852;2023-12-14T05:31:08;0.98;;;0.98;;
43327;SDS011;28923;45.412;10.852;2023-12-14T05:33:37;1.30;;;1.20;;
43327;SDS011;28923;45.412;10.852;2023-12-14T05:36:04;1.40;;;1.10;;
43327;SDS011;28923;45.412;10.852;2023-12-14T05:38:38;1.40;;;1.30;;
43327;SDS011;28923;45.412;10.852;2023-12-14T05:41:03;1.25;;;1.15;;
43327;SDS011;28923;45.412;10.852;2023-12-14T05:43:29;1.35;;;1.25;;
43327;SDS011;28923;45.412;10.852;2023-12-14T05:45:57;1.08;;;1.08;;
43327;SDS011;28923;45.412;10.852;2023-12-14T05:48:27;4.07;;;1.08;;
43327;SDS011;28923;45.412;10.852;2023-12-14T05:50:53;1.20;;;1.10;;
43327;SDS011;28923;45.412;10.852;2023-12-14T05:53:19;2.05;;;1.33;;
43327;SDS011;28923;45.412;10.852;2023-12-14T05:55:44;3.92;;;1.30;;
43327;SDS011;28923;45.412;10.852;2023-12-14T05:58:10;10.15;;;1.95;;
43327;SDS011;28923;45.412;10.852;2023-12-14T06:00:35;6.38;;;1.55;;
43327;SDS011;28923;45.412;10.852;2023-12-14T06:03:01;2.95;;;1.70;;
43327;SDS011;28923;45.412;10.852;2023-12-14T06:05:28;3.92;;;1.17;;
43327;SDS011;28923;45.412;10.852;2023-12-14T06:07:56;2.60;;;1.30;;
43327;SDS011;28923;45.412;10.852;2023-12-14T06:10:22;3.78;;;1.35;;
43327;SDS011;28923;45.412;10.852;2023-12-14T06:12:47;2.08;;;1.33;;
43327;SDS011;28923;45.412;10.852;2023-12-14T06:15:13;2.60;;;1.63;;
43327;SDS011;28923;45.412;10.852;2023-12-14T06:17:39;2.97;;;1.27;;
43327;SDS011;28923;45.412;10.852;2023-12-14T06:20:06;4.22;;;1.40;;
43327;SDS011;28923;45.412;10.852;2023-12-14T06:22:34;3.65;;;1.40;;
43327;SDS011;28923;45.412;10.852;2023-12-14T06:24:59;2.65;;;1.30;;
43327;SDS011;28923;45.412;10.852;2023-12-14T06:27:25;6.90;;;1.30;;
43327;SDS011;28923;45.412;10.852;2023-12-14T06:29:52;7.55;;;1.42;;
43327;SDS011;28923;45.412;10.852;2023-12-14T06:32:17;1.58;;;1.33;;
43327;SDS011;28923;45.412;10.852;2023-12-14T06:34:43;1.10;;;1.00;;
43327;SDS011;28923;45.412;10.852;2023-12-14T06:37:09;1.40;;;1.30;;
43327;SDS011;28923;45.412;10.852;2023-12-14T06:39:34;4.78;;;1.33;;
43327;SDS011;28923;45.412;10.852;2023-12-14T06:42:00;2.72;;;1.50;;
43327;SDS011;28923;45.412;10.852;2023-12-14T06:44:25;2.35;;;1.30;;
43327;SDS011;28923;45.412;10.852;2023-12-14T06:46:52;2.75;;;1.20;;
43327;SDS011;28923;45.412;10.852;2023-12-14T06:49:18;4.13;;;1.38;;
43327;SDS011;28923;45.412;10.852;2023-12-14T06:51:43;1.55;;;1.25;;
43327;SDS011;28923;45.412;10.852;2023-12-14T06:54:09;2.10;;;1.30;;
43327;SDS011;28923;45.412;10.852;2023-12-14T06:56:36;1.67;;;1.08;;
43327;SDS011;28923;45.412;10.852;2023-12-14T06:59:01;2.25;;;1.52;;
43327;SDS011;28923;45.412;10.852;2023-12-14T07:01:27;3.42;;;1.23;;
43327;SDS011;28923;45.412;10.852;2023-12-14T07:03:53;3.05;;;1.58;;
43327;SDS011;28923;45.412;10.852;2023-12-14T07:06:18;2.97;;;1.30;;
43327;SDS011;28923;45.412;10.852;2023-12-14T07:08:44;1.90;;;1.40;;
43327;SDS011;28923;45.412;10.852;2023-12-14T07:11:10;3.03;;;1.40;;
43327;SDS011;28923;45.412;10.852;2023-12-14T07:13:36;1.77;;;1.10;;
43327;SDS011;28923;45.412;10.852;2023-12-14T07:16:05;3.30;;;1.60;;
43327;SDS011;28923;45.412;10.852;2023-12-14T07:18:30;3.75;;;1.73;;
43327;SDS011;28923;45.412;10.852;2023-12-14T07:20:56;5.60;;;1.98;;
43327;SDS011;28923;45.412;10.852;2023-12-14T07:23:21;9.02;;;4.32;;
43327;SDS011;28923;45.412;10.852;2023-12-14T07:25:46;11.95;;;7.35;;
43327;SDS011;28923;45.412;10.852;2023-12-14T07:28:12;12.93;;;8.10;;
43327;SDS011;28923;45.412;10.852;2023-12-14T07:30:37;12.82;;;7.47;;
43327;SDS011;28923;45.412;10.852;2023-12-14T07:33:03;10.45;;;6.25;;
43327;SDS011;28923;45.412;10.852;2023-12-14T07:35:28;18.83;;;13.23;;
43327;SDS011;28923;45.412;10.852;2023-12-14T07:37:53;12.43;;;9.68;;
43327;SDS011;28923;45.412;10.852;2023-12-14T07:40:19;12.43;;;9.35;;
43327;SDS011;28923;45.412;10.852;2023-12-14T07:42:44;13.45;;;8.55;;
43327;SDS011;28923;45.412;10.852;2023-12-14T07:45:10;11.35;;;8.40;;
43327;SDS011;28923;45.412;10.852;2023-12-14T07:47:36;11.93;;;8.05;;
43327;SDS011;28923;45.412;10.852;2023-12-14T07:50:02;9.52;;;7.40;;
43327;SDS011;28923;45.412;10.852;2023-12-14T07:52:27;9.52;;;7.47;;
43327;SDS011;28923;45.412;10.852;2023-12-14T07:54:52;8.35;;;7.18;;
43327;SDS011;28923;45.412;10.852;2023-12-14T07:57:18;9.82;;;7.38;;
43327;SDS011;28923;45.412;10.852;2023-12-14T07:59:43;9.27;;;7.03;;
43327;SDS011;28923;45.412;10.852;2023-12-14T08:02:08;7.82;;;6.22;;
43327;SDS011;28923;45.412;10.852;2023-12-14T08:04:34;9.95;;;6.57;;
43327;SDS011;28923;45.412;10.852;2023-12-14T08:06:59;8.95;;;6.05;;
43327;SDS011;28923;45.412;10.852;2023-12-14T08:09:25;9.23;;;6.07;;
43327;SDS011;28923;45.412;10.852;2023-12-14T08:11:50;6.75;;;5.88;;
43327;SDS011;28923;45.412;10.852;2023-12-14T08:14:17;8.60;;;5.60;;
43327;SDS011;28923;45.412;10.852;2023-12-14T08:16:42;6.60;;;5.53;;
43327;SDS011;28923;45.412;10.852;2023-12-14T08:19:08;8.73;;;5.45;;
43327;SDS011;28923;45.412;10.852;2023-12-14T08:21:33;6.22;;;4.80;;
43327;SDS011;28923;45.412;10.852;2023-12-14T08:23:59;8.77;;;5.15;;
43327;SDS011;28923;45.412;10.852;2023-12-14T08:26:24;6.40;;;4.95;;
43327;SDS011;28923;45.412;10.852;2023-12-14T08:28:49;6.40;;;4.60;;
43327;SDS011;28923;45.412;10.852;2023-12-14T08:31:15;7.60;;;4.65;;
43327;SDS011;28923;45.412;10.852;2023-12-14T08:33:43;5.47;;;4.43;;
43327;SDS011;28923;45.412;10.852;2023-12-14T08:36:09;4.95;;;4.32;;
43327;SDS011;28923;45.412;10.852;2023-12-14T08:38:34;5.57;;;4.50;;
43327;SDS011;28923;45.412;10.852;2023-12-14T08:41:00;4.85;;;4.38;;
43327;SDS011;28923;45.412;10.852;2023-12-14T08:43:25;5.80;;;4.22;;
43327;SDS011;28923;45.412;10.852;2023-12-14T08:45:51;5.28;;;4.18;;
43327;SDS011;28923;45.412;10.852;2023-12-14T08:48:16;4.50;;;3.72;;
43327;SDS011;28923;45.412;10.852;2023-12-14T08:50:42;4.80;;;3.90;;
43327;SDS011;28923;45.412;10.852;2023-12-14T08:53:07;5.60;;;4.10;;
43327;SDS011;28923;45.412;10.852;2023-12-14T08:55:34;4.10;;;3.70;;
43327;SDS011;28923;45.412;10.852;2023-12-14T08:57:59;4.65;;;3.75;;
43327;SDS011;28923;45.412;10.852;2023-12-14T09:00:25;4.35;;;3.65;;
43327;SDS011;28923;45.412;10.852;2023-12-14T09:02:51;4.75;;;3.80;;
43327;SDS011;28923;45.412;10.852;2023-12-14T09:05:16;4.32;;;3.63;;
43327;SDS011;28923;45.412;10.852;2023-12-14T09:07:44;4.43;;;3.47;;
43327;SDS011;28923;45.412;10.852;2023-12-14T09:10:09;3.85;;;3.40;;
43327;SDS011;28923;45.412;10.852;2023-12-14T09:12:35;3.50;;;3.10;;
43327;SDS011;28923;45.412;10.852;2023-12-14T09:15:00;4.15;;;3.20;;
43327;SDS011;28923;45.412;10.852;2023-12-14T09:17:26;3.75;;;3.30;;
43327;SDS011;28923;45.412;10.852;2023-12-14T09:19:57;4.43;;;3.13;;
43327;SDS011;28923;45.412;10.852;2023-12-14T09:22:23;3.90;;;3.20;;
43327;SDS011;28923;45.412;10.852;2023-12-14T09:24:48;3.63;;;3.17;;
43327;SDS011;28923;45.412;10.852;2023-12-14T09:27:13;4.40;;;3.45;;
43327;SDS011;28923;45.412;10.852;2023-12-14T09:29:40;3.65;;;3.00;;
43327;SDS011;28923;45.412;10.852;2023-12-14T09:32:07;4.57;;;2.90;;
43327;SDS011;28923;45.412;10.852;2023-12-14T09:34:33;3.83;;;3.08;;
43327;SDS011;28923;45.412;10.852;2023-12-14T09:36:58;3.22;;;2.75;;
43327;SDS011;28923;45.412;10.852;2023-12-14T09:39:23;2.80;;;2.47;;
43327;SDS011;28923;45.412;10.852;2023-12-14T09:41:50;3.20;;;2.53;;
43327;SDS011;28923;45.412;10.852;2023-12-14T09:44:15;3.10;;;2.80;;
43327;SDS011;28923;45.412;10.852;2023-12-14T09:46:40;3.47;;;2.65;;
43327;SDS011;28923;45.412;10.852;2023-12-14T09:49:11;2.85;;;2.50;;
43327;SDS011;28923;45.412;10.852;2023-12-14T09:51:37;3.17;;;2.28;;
43327;SDS011;28923;45.412;10.852;2023-12-14T09:54:03;3.20;;;2.63;;
43327;SDS011;28923;45.412;10.852;2023-12-14T09:56:29;3.20;;;2.70;;
43327;SDS011;28923;45.412;10.852;2023-12-14T09:58:55;3.58;;;2.72;;
43327;SDS011;28923;45.412;10.852;2023-12-14T10:01:25;4.28;;;2.60;;
43327;SDS011;28923;45.412;10.852;2023-12-14T10:04:01;3.00;;;2.70;;
43327;SDS011;28923;45.412;10.852;2023-12-14T10:06:32;2.70;;;2.13;;
43327;SDS011;28923;45.412;10.852;2023-12-14T10:08:58;3.38;;;2.40;;
43327;SDS011;28923;45.412;10.852;2023-12-14T10:11:23;3.03;;;2.03;;
43327;SDS011;28923;45.412;10.852;2023-12-14T10:13:48;3.17;;;2.03;;
43327;SDS011;28923;45.412;10.852;2023-12-14T10:16:26;2.85;;;2.55;;
43327;SDS011;28923;45.412;10.852;2023-12-14T10:18:51;2.15;;;1.95;;
43327;SDS011;28923;45.412;10.852;2023-12-14T10:21:17;3.08;;;2.10;;
43327;SDS011;28923;45.412;10.852;2023-12-14T10:23:44;2.55;;;2.30;;
43327;SDS011;28923;45.412;10.852;2023-12-14T10:26:11;2.83;;;2.15;;
43327;SDS011;28923;45.412;10.852;2023-12-14T10:28:39;2.35;;;2.10;;
43327;SDS011;28923;45.412;10.852;2023-12-14T10:31:05;3.47;;;2.35;;
43327;SDS011;28923;45.412;10.852;2023-12-14T10:33:31;2.10;;;1.90;;
43327;SDS011;28923;45.412;10.852;2023-12-14T10:35:58;2.40;;;2.20;;
43327;SDS011;28923;45.412;10.852;2023-12-14T10:38:24;2.70;;;2.15;;
43327;SDS011;28923;45.412;10.852;2023-12-14T10:40:50;3.25;;;2.33;;
43327;SDS011;28923;45.412;10.852;2023-12-14T10:43:17;2.05;;;1.85;;
43327;SDS011;28923;45.412;10.852;2023-12-14T10:45:43;1.80;;;1.70;;
43327;SDS011;28923;45.412;10.852;2023-12-14T10:48:09;2.25;;;1.90;;
43327;SDS011;28923;45.412;10.852;2023-12-14T10:50:34;2.40;;;2.00;;
43327;SDS011;28923;45.412;10.852;2023-12-14T10:53:02;2.30;;;2.10;;
43327;SDS011;28923;45.412;10.852;2023-12-14T10:58:02;2.13;;;1.77;;
43327;SDS011;28923;45.412;10.852;2023-12-14T11:00:28;2.15;;;1.95;;
43327;SDS011;28923;45.412;10.852;2023-12-14T11:02:54;2.00;;;1.80;;
43327;SDS011;28923;45.412;10.852;2023-12-14T11:05:21;2.03;;;1.83;;
43327;SDS011;28923;45.412;10.852;2023-12-14T11:10:36;2.08;;;1.88;;
43327;SDS011;28923;45.412;10.852;2023-12-14T11:13:02;2.28;;;1.98;;
43327;SDS011;28923;45.412;10.852;2023-12-14T11:15:29;3.53;;;1.88;;
43327;SDS011;28923;45.412;10.852;2023-12-14T11:23:10;3.70;;;1.90;;
43327;SDS011;28923;45.412;10.852;2023-12-14T11:25:36;2.10;;;1.85;;
43327;SDS011;28923;45.412;10.852;2023-12-14T11:28:06;6.68;;;2.63;;
43327;SDS011;28923;45.412;10.852;2023-12-14T11:30:33;3.42;;;2.10;;
43327;SDS011;28923;45.412;10.852;2023-12-14T11:32:59;6.93;;;2.38;;
43327;SDS011;28923;45.412;10.852;2023-12-14T11:35:24;2.45;;;2.10;;
43327;SDS011;28923;45.412;10.852;2023-12-14T11:37:49;5.18;;;1.98;;
43327;SDS011;28923;45.412;10.852;2023-12-14T11:40:16;5.88;;;2.25;;
43327;SDS011;28923;45.412;10.852;2023-12-14T11:43:03;8.05;;;2.58;;
43327;SDS011;28923;45.412;10.852;2023-12-14T11:45:33;4.05;;;2.30;;
43327;SDS011;28923;45.412;10.852;2023-12-14T11:47:58;3.72;;;2.15;;
43327;SDS011;28923;45.412;10.852;2023-12-14T11:50:24;3.95;;;2.22;;
43327;SDS011;28923;45.412;10.852;2023-12-14T11:52:49;5.30;;;2.22;;
43327;SDS011;28923;45.412;10.852;2023-12-14T11:55:15;4.25;;;2.10;;
43327;SDS011;28923;45.412;10.852;2023-12-14T11:57:46;5.93;;;2.30;;
43327;SDS011;28923;45.412;10.852;2023-12-14T12:00:12;4.63;;;2.40;;
43327;SDS011;28923;45.412;10.852;2023-12-14T12:02:39;5.50;;;2.17;;
43327;SDS011;28923;45.412;10.852;2023-12-14T12:05:06;3.17;;;2.28;;
43327;SDS011;28923;45.412;10.852;2023-12-14T12:07:32;5.03;;;2.20;;
43327;SDS011;28923;45.412;10.852;2023-12-14T12:09:58;3.65;;;2.08;;
43327;SDS011;28923;45.412;10.852;2023-12-14T12:12:23;4.50;;;2.00;;
43327;SDS011;28923;45.412;10.852;2023-12-14T12:14:49;3.17;;;2.10;;
43327;SDS011;28923;45.412;10.852;2023-12-14T12:17:18;4.03;;;1.90;;
43327;SDS011;28923;45.412;10.852;2023-12-14T12:19:45;3.22;;;1.92;;
43327;SDS011;28923;45.412;10.852;2023-12-14T12:22:10;4.38;;;2.38;;
43327;SDS011;28923;45.412;10.852;2023-12-14T12:24:36;5.78;;;1.80;;
43327;SDS011;28923;45.412;10.852;2023-12-14T12:27:02;3.28;;;2.03;;
43327;SDS011;28923;45.412;10.852;2023-12-14T12:29:29;3.20;;;2.10;;
43327;SDS011;28923;45.412;10.852;2023-12-14T12:31:55;4.80;;;2.10;;
43327;SDS011;28923;45.412;10.852;2023-12-14T12:34:21;2.30;;;2.10;;
43327;SDS011;28923;45.412;10.852;2023-12-14T12:36:47;2.35;;;2.05;;
43327;SDS011;28923;45.412;10.852;2023-12-14T12:39:12;3.30;;;2.28;;
43327;SDS011;28923;45.412;10.852;2023-12-14T12:41:38;4.05;;;2.22;;
43327;SDS011;28923;45.412;10.852;2023-12-14T12:44:04;2.10;;;1.90;;
43327;SDS011;28923;45.412;10.852;2023-12-14T12:46:33;2.70;;;2.20;;
43327;SDS011;28923;45.412;10.852;2023-12-14T12:49:00;2.55;;;2.03;;
43327;SDS011;28923;45.412;10.852;2023-12-14T12:51:25;2.17;;;1.98;;
43327;SDS011;28923;45.412;10.852;2023-12-14T12:53:52;2.53;;;2.15;;
43327;SDS011;28923;45.412;10.852;2023-12-14T12:56:17;5.45;;;2.00;;
43327;SDS011;28923;45.412;10.852;2023-12-14T12:58:42;3.08;;;1.90;;
43327;SDS011;28923;45.412;10.852;2023-12-14T13:01:08;2.50;;;2.10;;
43327;SDS011;28923;45.412;10.852;2023-12-14T13:03:34;2.40;;;2.17;;
43327;SDS011;28923;45.412;10.852;2023-12-14T13:05:59;2.67;;;2.00;;
43327;SDS011;28923;45.412;10.852;2023-12-14T13:08:26;3.08;;;2.20;;
43327;SDS011;28923;45.412;10.852;2023-12-14T13:10:51;2.97;;;2.30;;
43327;SDS011;28923;45.412;10.852;2023-12-14T13:13:19;2.60;;;2.20;;
43327;SDS011;28923;45.412;10.852;2023-12-14T13:15:45;3.22;;;2.40;;
43327;SDS011;28923;45.412;10.852;2023-12-14T13:18:10;2.75;;;2.47;;
43327;SDS011;28923;45.412;10.852;2023-12-14T13:20:35;3.65;;;2.30;;
43327;SDS011;28923;45.412;10.852;2023-12-14T13:23:01;3.03;;;2.65;;
43327;SDS011;28923;45.412;10.852;2023-12-14T13:25:27;3.20;;;2.60;;
43327;SDS011;28923;45.412;10.852;2023-12-14T13:27:53;3.42;;;2.50;;
43327;SDS011;28923;45.412;10.852;2023-12-14T13:30:18;2.92;;;2.40;;
43327;SDS011;28923;45.412;10.852;2023-12-14T13:32:44;2.70;;;2.45;;
43327;SDS011;28923;45.412;10.852;2023-12-14T13:35:09;3.10;;;2.50;;
43327;SDS011;28923;45.412;10.852;2023-12-14T13:37:35;4.40;;;2.53;;
43327;SDS011;28923;45.412;10.852;2023-12-14T13:40:00;4.22;;;2.70;;
43327;SDS011;28923;45.412;10.852;2023-12-14T13:42:27;3.78;;;2.75;;
43327;SDS011;28923;45.412;10.852;2023-12-14T13:44:52;3.78;;;2.90;;
43327;SDS011;28923;45.412;10.852;2023-12-14T13:47:18;3.13;;;2.60;;
43327;SDS011;28923;45.412;10.852;2023-12-14T13:49:43;3.33;;;2.58;;
43327;SDS011;28923;45.412;10.852;2023-12-14T13:52:09;3.70;;;2.88;;
43327;SDS011;28923;45.412;10.852;2023-12-14T13:54:34;4.50;;;2.78;;
43327;SDS011;28923;45.412;10.852;2023-12-14T13:57:02;4.82;;;3.20;;
43327;SDS011;28923;45.412;10.852;2023-12-14T13:59:27;3.60;;;2.78;;
43327;SDS011;28923;45.412;10.852;2023-12-14T14:01:52;3.95;;;3.00;;
43327;SDS011;28923;45.412;10.852;2023-12-14T14:04:18;4.30;;;3.22;;
43327;SDS011;28923;45.412;10.852;2023-12-14T14:06:44;4.03;;;3.08;;
43327;SDS011;28923;45.412;10.852;2023-12-14T14:09:09;4.30;;;3.42;;
43327;SDS011;28923;45.412;10.852;2023-12-14T14:11:37;4.15;;;2.92;;
43327;SDS011;28923;45.412;10.852;2023-12-14T14:14:02;4.38;;;2.95;;
43327;SDS011;28923;45.412;10.852;2023-12-14T14:16:29;4.45;;;3.47;;
43327;SDS011;28923;45.412;10.852;2023-12-14T14:18:54;5.57;;;3.17;;
43327;SDS011;28923;45.412;10.852;2023-12-14T14:21:20;3.33;;;2.70;;
43327;SDS011;28923;45.412;10.852;2023-12-14T14:23:45;2.90;;;2.60;;
43327;SDS011;28923;45.412;10.852;2023-12-14T14:26:10;4.15;;;2.97;;
43327;SDS011;28923;45.412;10.852;2023-12-14T14:28:36;4.82;;;2.85;;
43327;SDS011;28923;45.412;10.852;2023-12-14T14:31:01;4.35;;;2.75;;
43327;SDS011;28923;45.412;10.852;2023-12-14T14:33:27;3.70;;;3.00;;
43327;SDS011;28923;45.412;10.852;2023-12-14T14:35:52;3.72;;;2.92;;
43327;SDS011;28923;45.412;10.852;2023-12-14T14:38:18;3.80;;;2.88;;
43327;SDS011;28923;45.412;10.852;2023-12-14T14:40:43;4.22;;;3.00;;
43327;SDS011;28923;45.412;10.852;2023-12-14T14:43:10;5.90;;;3.15;;
43327;SDS011;28923;45.412;10.852;2023-12-14T14:45:35;3.90;;;2.80;;
43327;SDS011;28923;45.412;10.852;2023-12-14T14:48:03;3.97;;;2.70;;
43327;SDS011;28923;45.412;10.852;2023-12-14T14:50:30;3.78;;;2.72;;
43327;SDS011;28923;45.412;10.852;2023-12-14T14:52:56;3.40;;;2.42;;
43327;SDS011;28923;45.412;10.852;2023-12-14T14:55:21;4.30;;;2.95;;
43327;SDS011;28923;45.412;10.852;2023-12-14T14:57:47;3.35;;;2.65;;
43327;SDS011;28923;45.412;10.852;2023-12-14T15:00:12;5.40;;;3.05;;
43327;SDS011;28923;45.412;10.852;2023-12-14T15:02:38;6.28;;;3.03;;
43327;SDS011;28923;45.412;10.852;2023-12-14T15:05:03;5.22;;;2.72;;
43327;SDS011;28923;45.412;10.852;2023-12-14T15:07:29;3.50;;;3.00;;
43327;SDS011;28923;45.412;10.852;2023-12-14T15:09:55;4.38;;;3.00;;
43327;SDS011;28923;45.412;10.852;2023-12-14T15:12:21;4.68;;;3.13;;
43327;SDS011;28923;45.412;10.852;2023-12-14T15:14:46;3.72;;;3.08;;
43327;SDS011;28923;45.412;10.852;2023-12-14T15:17:12;3.72;;;3.30;;
43327;SDS011;28923;45.412;10.852;2023-12-14T15:19:37;4.45;;;3.20;;
43327;SDS011;28923;45.412;10.852;2023-12-14T15:22:03;3.60;;;3.15;;
43327;SDS011;28923;45.412;10.852;2023-12-14T15:24:28;4.72;;;3.03;;
43327;SDS011;28923;45.412;10.852;2023-12-14T15:26:54;3.38;;;2.95;;
43327;SDS011;28923;45.412;10.852;2023-12-14T15:29:19;3.58;;;3.20;;
43327;SDS011;28923;45.412;10.852;2023-12-14T15:31:46;4.32;;;3.45;;
43327;SDS011;28923;45.412;10.852;2023-12-14T15:34:11;4.15;;;3.25;;
43327;SDS011;28923;45.412;10.852;2023-12-14T15:36:38;3.58;;;3.10;;
43327;SDS011;28923;45.412;10.852;2023-12-14T15:39:03;3.72;;;3.22;;
43327;SDS011;28923;45.412;10.852;2023-12-14T15:41:30;3.55;;;2.95;;
43327;SDS011;28923;45.412;10.852;2023-12-14T15:43:55;3.67;;;3.28;;
43327;SDS011;28923;45.412;10.852;2023-12-14T15:46:21;3.47;;;3.08;;
43327;SDS011;28923;45.412;10.852;2023-12-14T15:48:46;3.83;;;3.17;;
43327;SDS011;28923;45.412;10.852;2023-12-14T15:51:12;3.72;;;3.22;;
43327;SDS011;28923;45.412;10.852;2023-12-14T15:53:38;4.00;;;3.50;;
43327;SDS011;28923;45.412;10.852;2023-12-14T15:56:05;3.78;;;3.40;;
43327;SDS011;28923;45.412;10.852;2023-12-14T15:58:31;3.67;;;3.10;;
43327;SDS011;28923;45.412;10.852;2023-12-14T16:00:56;4.25;;;3.50;;
43327;SDS011;28923;45.412;10.852;2023-12-14T16:03:23;4.25;;;3.30;;
43327;SDS011;28923;45.412;10.852;2023-12-14T16:05:48;4.90;;;3.33;;
43327;SDS011;28923;45.412;10.852;2023-12-14T16:08:14;4.25;;;3.63;;
43327;SDS011;28923;45.412;10.852;2023-12-14T16:10:41;3.85;;;3.33;;
43327;SDS011;28923;45.412;10.852;2023-12-14T16:13:10;4.15;;;3.17;;
43327;SDS011;28923;45.412;10.852;2023-12-14T16:15:36;4.78;;;3.80;;
43327;SDS011;28923;45.412;10.852;2023-12-14T16:18:02;4.10;;;3.55;;
43327;SDS011;28923;45.412;10.852;2023-12-14T16:20:30;4.60;;;3.33;;
43327;SDS011;28923;45.412;10.852;2023-12-14T16:22:56;4.25;;;3.45;;
43327;SDS011;28923;45.412;10.852;2023-12-14T16:25:22;3.47;;;3.10;;
43327;SDS011;28923;45.412;10.852;2023-12-14T16:27:48;6.70;;;3.30;;
43327;SDS011;28923;45.412;10.852;2023-12-14T16:30:16;6.10;;;3.33;;
43327;SDS011;28923;45.412;10.852;2023-12-14T16:32:42;5.10;;;3.38;;
43327;SDS011;28923;45.412;10.852;2023-12-14T16:35:08;5.47;;;3.40;;
43327;SDS011;28923;45.412;10.852;2023-12-14T16:37:36;4.32;;;3.60;;
43327;SDS011;28923;45.412;10.852;2023-12-14T16:40:01;7.40;;;4.00;;
43327;SDS011;28923;45.412;10.852;2023-12-14T16:42:27;6.18;;;4.00;;
43327;SDS011;28923;45.412;10.852;2023-12-14T16:44:53;5.90;;;3.80;;
43327;SDS011;28923;45.412;10.852;2023-12-14T16:47:18;4.43;;;3.53;;
43327;SDS011;28923;45.412;10.852;2023-12-14T16:49:44;5.65;;;3.67;;
43327;SDS011;28923;45.412;10.852;2023-12-14T16:52:09;4.65;;;3.97;;
43327;SDS011;28923;45.412;10.852;2023-12-14T16:54:39;4.30;;;3.47;;
43327;SDS011;28923;45.412;10.852;2023-12-14T16:57:05;5.72;;;3.88;;
43327;SDS011;28923;45.412;10.852;2023-12-14T16:59:30;5.80;;;3.47;;
43327;SDS011;28923;45.412;10.852;2023-12-14T17:01:56;4.35;;;3.22;;
43327;SDS011;28923;45.412;10.852;2023-12-14T17:04:21;4.70;;;3.90;;
43327;SDS011;28923;45.412;10.852;2023-12-14T17:06:47;4.45;;;3.78;;
43327;SDS011;28923;45.412;10.852;2023-12-14T17:09:12;4.15;;;2.95;;
43327;SDS011;28923;45.412;10.852;2023-12-14T17:11:38;3.70;;;3.30;;
43327;SDS011;28923;45.412;10.852;2023-12-14T17:14:04;4.57;;;3.70;;
43327;SDS011;28923;45.412;10.852;2023-12-14T17:16:29;3.80;;;3.28;;
43327;SDS011;28923;45.412;10.852;2023-12-14T17:18:55;3.63;;;3.30;;
43327;SDS011;28923;45.412;10.852;2023-12-14T17:23:46;4.40;;;3.25;;
43327;SDS011;28923;45.412;10.852;2023-12-14T17:26:12;4.43;;;3.33;;
43327;SDS011;28923;45.412;10.852;2023-12-14T17:28:50;4.18;;;3.40;;
43327;SDS011;28923;45.412;10.852;2023-12-14T17:31:16;5.03;;;3.42;;
43327;SDS011;28923;45.412;10.852;2023-12-14T17:33:42;3.80;;;3.38;;
43327;SDS011;28923;45.412;10.852;2023-12-14T17:36:08;3.63;;;3.05;;
43327;SDS011;28923;45.412;10.852;2023-12-14T17:38:33;4.10;;;3.42;;
43327;SDS011;28923;45.412;10.852;2023-12-14T17:40:59;4.18;;;3.25;;
43327;SDS011;28923;45.412;10.852;2023-12-14T17:43:29;4.70;;;3.30;;
43327;SDS011;28923;45.412;10.852;2023-12-14T17:45:55;4.03;;;3.47;;
43327;SDS011;28923;45.412;10.852;2023-12-14T17:48:20;4.07;;;3.42;;
43327;SDS011;28923;45.412;10.852;2023-12-14T17:50:46;4.30;;;3.53;;
43327;SDS011;28923;45.412;10.852;2023-12-14T17:53:11;5.00;;;3.10;;
43327;SDS011;28923;45.412;10.852;2023-12-14T17:55:36;4.57;;;3.33;;
43327;SDS011;28923;45.412;10.852;2023-12-14T17:58:02;4.82;;;3.40;;
43327;SDS011;28923;45.412;10.852;2023-12-14T18:00:27;6.47;;;3.33;;
43327;SDS011;28923;45.412;10.852;2023-12-14T18:02:53;5.15;;;3.78;;
43327;SDS011;28923;45.412;10.852;2023-12-14T18:05:18;3.67;;;2.97;;
43327;SDS011;28923;45.412;10.852;2023-12-14T18:07:44;3.50;;;3.03;;
43327;SDS011;28923;45.412;10.852;2023-12-14T18:10:09;4.97;;;3.42;;
43327;SDS011;28923;45.412;10.852;2023-12-14T18:12:35;4.90;;;3.33;;
43327;SDS011;28923;45.412;10.852;2023-12-14T18:15:01;3.92;;;3.33;;
43327;SDS011;28923;45.412;10.852;2023-12-14T18:17:26;4.10;;;3.10;;
43327;SDS011;28923;45.412;10.852;2023-12-14T18:19:51;4.10;;;3.47;;
43327;SDS011;28923;45.412;10.852;2023-12-14T18:22:21;4.03;;;3.40;;
43327;SDS011;28923;45.412;10.852;2023-12-14T18:24:46;4.00;;;3.42;;
43327;SDS011;28923;45.412;10.852;2023-12-14T18:27:11;4.50;;;3.42;;
43327;SDS011;28923;45.412;10.852;2023-12-14T18:29:37;4.90;;;3.60;;
43327;SDS011;28923;45.412;10.852;2023-12-14T18:32:02;4.80;;;3.45;;
43327;SDS011;28923;45.412;10.852;2023-12-14T18:34:28;5.93;;;3.33;;
43327;SDS011;28923;45.412;10.852;2023-12-14T18:36:53;5.97;;;3.40;;
43327;SDS011;28923;45.412;10.852;2023-12-14T18:39:19;3.58;;;3.17;;
43327;SDS011;28923;45.412;10.852;2023-12-14T18:41:44;4.47;;;3.20;;
43327;SDS011;28923;45.412;10.852;2023-12-14T18:44:10;4.55;;;3.28;;
43327;SDS011;28923;45.412;10.852;2023-12-14T18:46:35;4.28;;;3.10;;
43327;SDS011;28923;45.412;10.852;2023-12-14T18:49:01;4.55;;;3.25;;
43327;SDS011;28923;45.412;10.852;2023-12-14T18:51:26;3.80;;;2.80;;
43327;SDS011;28923;45.412;10.852;2023-12-14T18:53:51;4.40;;;3.17;;
43327;SDS011;28923;45.412;10.852;2023-12-14T18:56:17;5.38;;;3.85;;
43327;SDS011;28923;45.412;10.852;2023-12-14T18:58:42;4.50;;;3.42;;
43327;SDS011;28923;45.412;10.852;2023-12-14T19:01:08;4.57;;;3.13;;
43327;SDS011;28923;45.412;10.852;2023-12-14T19:03:33;4.88;;;3.20;;
43327;SDS011;28923;45.412;10.852;2023-12-14T19:06:00;4.38;;;3.33;;
43327;SDS011;28923;45.412;10.852;2023-12-14T19:08:33;4.53;;;3.33;;
43327;SDS011;28923;45.412;10.852;2023-12-14T19:10:58;3.88;;;3.35;;
43327;SDS011;28923;45.412;10.852;2023-12-14T19:13:24;4.05;;;3.28;;
43327;SDS011;28923;45.412;10.852;2023-12-14T19:15:49;5.03;;;3.05;;
43327;SDS011;28923;45.412;10.852;2023-12-14T19:18:15;5.20;;;3.40;;
43327;SDS011;28923;45.412;10.852;2023-12-14T19:20:40;9.07;;;3.55;;
43327;SDS011;28923;45.412;10.852;2023-12-14T19:23:05;4.38;;;3.22;;
43327;SDS011;28923;45.412;10.852;2023-12-14T19:25:31;5.65;;;3.80;;
43327;SDS011;28923;45.412;10.852;2023-12-14T19:27:56;4.15;;;3.58;;
43327;SDS011;28923;45.412;10.852;2023-12-14T19:30:22;4.15;;;3.35;;
43327;SDS011;28923;45.412;10.852;2023-12-14T19:32:47;8.60;;;3.90;;
43327;SDS011;28923;45.412;10.852;2023-12-14T19:35:13;8.10;;;3.92;;
43327;SDS011;28923;45.412;10.852;2023-12-14T19:37:39;9.13;;;4.22;;
43327;SDS011;28923;45.412;10.852;2023-12-14T19:40:04;8.57;;;4.35;;